createdAt,value
2018-11-27T00:00:33.030Z,101879.47
2018-11-27T00:03:02.122Z,101877.63
2018-11-27T00:05:30.373Z,101876.26
2018-11-27T00:07:57.926Z,101879.27
2018-11-27T00:10:25.567Z,101883.96
2018-11-27T00:12:53.153Z,101882.19
2018-11-27T00:15:20.658Z,101889.06
2018-11-27T00:17:48.294Z,101882.12
2018-11-27T00:20:15.821Z,101879.52
2018-11-27T00:22:43.320Z,101881.70
2018-11-27T00:25:18.194Z,101883.83
2018-11-27T00:27:45.823Z,101885.98
2018-11-27T00:30:16.756Z,101892.90
2018-11-27T00:32:44.529Z,101891.53
2018-11-27T00:35:12.919Z,101887.16
2018-11-27T00:37:40.386Z,101904.02
2018-11-27T00:40:14.180Z,101894.44
2018-11-27T00:42:41.742Z,101894.87
2018-11-27T00:45:10.532Z,101885.27
2018-11-27T00:47:38.280Z,101831.62
2018-11-27T00:50:15.252Z,101886.98
2018-11-27T00:52:43.002Z,101889.92
2018-11-27T00:55:12.378Z,101895.98
2018-11-27T00:57:40.570Z,101890.27
2018-11-27T01:00:23.950Z,101888.97
2018-11-27T01:02:51.491Z,101888.93
2018-11-27T01:05:20.057Z,101894.16
2018-11-27T01:07:47.845Z,101898.06
2018-11-27T01:10:17.240Z,101905.86
2018-11-27T01:12:44.804Z,101903.23
2018-11-27T01:15:13.266Z,101901.07
2018-11-27T01:17:44.810Z,101910.98
2018-11-27T01:20:13.390Z,101920.05
2018-11-27T01:22:41.223Z,101910.06
2018-11-27T01:25:09.331Z,101909.14
2018-11-27T01:27:37.100Z,101915.59
2018-11-27T01:30:06.965Z,101915.56
2018-11-27T01:32:34.477Z,101916.83
2018-11-27T01:35:01.989Z,101913.33
2018-11-27T01:37:29.820Z,101921.57
2018-11-27T01:39:57.312Z,101919.80
2018-11-27T01:42:24.877Z,101921.98
2018-11-27T01:44:52.538Z,101923.31
2018-11-27T01:47:20.055Z,101917.27
2018-11-27T01:49:47.541Z,101926.84
2018-11-27T01:52:15.332Z,101920.79
2018-11-27T01:54:42.868Z,101919.45
2018-11-27T01:57:10.391Z,101906.84
2018-11-27T01:59:38.148Z,101908.58
2018-11-27T02:02:05.942Z,101923.69
2018-11-27T02:04:33.401Z,101915.05
2018-11-27T02:07:01.125Z,101914.97
2018-11-27T02:09:28.659Z,101921.47
2018-11-27T02:11:56.246Z,101912.38
2018-11-27T02:14:23.930Z,101908.47
2018-11-27T02:16:51.435Z,101910.63
2018-11-27T02:19:18.922Z,101903.69
2018-11-27T02:21:46.722Z,101907.52
2018-11-27T02:24:14.203Z,101905.32
2018-11-27T02:26:41.703Z,101895.34
2018-11-27T02:29:09.332Z,101899.27
2018-11-27T02:31:36.840Z,101897.53
2018-11-27T02:34:04.605Z,101910.45
2018-11-27T02:36:32.480Z,101913.45
2018-11-27T02:38:59.981Z,101907.84
2018-11-27T02:41:27.506Z,101915.61
2018-11-27T02:43:55.404Z,101920.39
2018-11-27T02:46:22.863Z,101912.16
2018-11-27T02:48:50.478Z,101920.88
2018-11-27T02:51:18.163Z,101912.19
2018-11-27T02:53:45.645Z,101885.77
2018-11-27T02:56:13.168Z,101916.09
2018-11-27T02:58:40.737Z,101906.55
2018-11-27T03:01:08.219Z,101909.96
2018-11-27T03:03:35.699Z,101916.45
2018-11-27T03:06:03.474Z,101923.40
2018-11-27T03:08:30.988Z,101922.47
2018-11-27T03:10:58.552Z,101922.06
2018-11-27T03:13:26.279Z,101917.27
2018-11-27T03:15:53.785Z,101919.42
2018-11-27T03:18:21.290Z,101910.19
2018-11-27T03:20:49.106Z,101919.84
2018-11-27T03:23:16.693Z,101922.88
2018-11-27T03:28:18.666Z,101935.42
2018-11-27T03:30:46.130Z,101930.67
2018-11-27T03:33:13.871Z,101941.06
2018-11-27T03:35:41.415Z,101947.11
2018-11-27T03:38:09.833Z,101942.69
2018-11-27T03:40:37.483Z,101959.20
2018-11-27T03:43:05.191Z,101961.32
2018-11-27T03:45:32.702Z,101972.16
2018-11-27T03:48:00.417Z,101968.63
2018-11-27T03:50:29.805Z,101967.37
2018-11-27T03:52:57.346Z,101973.01
2018-11-27T03:55:25.126Z,101969.56
2018-11-27T03:57:52.809Z,101978.69
2018-11-27T04:00:22.887Z,101975.61
2018-11-27T04:02:53.655Z,101976.50
2018-11-27T04:05:21.712Z,101974.27
2018-11-27T04:07:49.286Z,101980.84
2018-11-27T04:10:18.070Z,101978.25
2018-11-27T04:12:45.619Z,101974.27
2018-11-27T04:15:13.404Z,101977.39
2018-11-27T04:17:41.305Z,101979.55
2018-11-27T04:20:09.686Z,101979.55
2018-11-27T04:22:37.547Z,101983.44
2018-11-27T04:25:07.002Z,101981.69
2018-11-27T04:27:34.658Z,101984.73
2018-11-27T04:30:02.265Z,101987.34
2018-11-27T04:32:29.950Z,101996.42
2018-11-27T04:34:57.467Z,101997.31
2018-11-27T04:37:24.895Z,101990.41
2018-11-27T04:39:52.556Z,101994.76
2018-11-27T04:42:19.993Z,101993.02
2018-11-27T04:44:47.489Z,102006.94
2018-11-27T04:47:15.273Z,102000.07
2018-11-27T04:49:42.783Z,102008.31
2018-11-27T04:52:10.299Z,102019.22
2018-11-27T04:54:37.987Z,102015.37
2018-11-27T04:57:05.532Z,102017.16
2018-11-27T04:59:33.078Z,102017.23
2018-11-27T05:02:00.749Z,102011.17
2018-11-27T05:04:28.247Z,102011.22
2018-11-27T05:06:55.778Z,102013.04
2018-11-27T05:09:23.532Z,102016.56
2018-11-27T05:11:51.022Z,102018.31
2018-11-27T05:14:18.574Z,102014.90
2018-11-27T05:16:46.371Z,102023.59
2018-11-27T05:19:13.844Z,102027.08
2018-11-27T05:21:41.301Z,102033.13
2018-11-27T05:24:09.027Z,102038.81
2018-11-27T05:26:36.596Z,102038.81
2018-11-27T05:29:04.383Z,102030.09
2018-11-27T05:31:32.146Z,102039.26
2018-11-27T05:33:59.621Z,102036.20
2018-11-27T05:36:27.122Z,102041.45
2018-11-27T05:38:54.808Z,102043.60
2018-11-27T05:41:22.330Z,102047.95
2018-11-27T05:43:49.836Z,102042.75
2018-11-27T05:46:17.487Z,102045.79
2018-11-27T05:48:45.018Z,102050.58
2018-11-27T05:51:12.518Z,102049.28
2018-11-27T05:53:40.166Z,102051.36
2018-11-27T05:56:07.668Z,102056.19
2018-11-27T05:58:35.169Z,102061.75
2018-11-27T06:01:02.731Z,102070.48
2018-11-27T06:03:30.238Z,102072.64
2018-11-27T06:05:57.733Z,102079.05
2018-11-27T06:08:25.298Z,102084.33
2018-11-27T06:10:52.799Z,102091.64
2018-11-27T06:13:20.319Z,102082.51
2018-11-27T06:15:47.929Z,102094.69
2018-11-27T06:18:15.393Z,102094.69
2018-11-27T06:20:42.933Z,102098.59
2018-11-27T06:23:10.591Z,102104.64
2018-11-27T06:25:38.152Z,102102.48
2018-11-27T06:28:07.108Z,102103.34
2018-11-27T06:30:35.200Z,102107.20
2018-11-27T06:33:02.723Z,102110.69
2018-11-27T06:35:36.972Z,102112.40
2018-11-27T06:38:05.912Z,102108.50
2018-11-27T06:40:33.402Z,102110.73
2018-11-27T06:43:01.134Z,102110.77
2018-11-27T06:45:28.714Z,102113.78
2018-11-27T06:47:56.175Z,102120.80
2018-11-27T06:50:24.002Z,102125.52
2018-11-27T06:52:51.573Z,102121.53
2018-11-27T06:55:20.147Z,102130.71
2018-11-27T06:57:47.962Z,102138.10
2018-11-27T07:00:18.315Z,102145.48
2018-11-27T07:02:45.848Z,102143.66
2018-11-27T07:05:14.011Z,102158.48
2018-11-27T07:07:41.940Z,102156.25
2018-11-27T07:10:42.483Z,102160.19
2018-11-27T07:13:13.983Z,102171.04
2018-11-27T07:15:41.481Z,102163.69
2018-11-27T07:18:09.421Z,102171.04
2018-11-27T07:20:37.084Z,102168.44
2018-11-27T07:23:04.902Z,102175.83
2018-11-27T07:25:32.573Z,102179.73
2018-11-27T07:28:00.076Z,102175.83
2018-11-27T07:30:27.601Z,102184.03
2018-11-27T07:32:55.562Z,102189.23
2018-11-27T07:35:23.070Z,102187.08
2018-11-27T07:37:50.740Z,102185.30
2018-11-27T07:40:19.777Z,102187.48
2018-11-27T07:42:47.898Z,102196.98
2018-11-27T07:45:16.500Z,102206.53
2018-11-27T07:47:44.598Z,102205.64
2018-11-27T07:50:12.720Z,102212.13
2018-11-27T07:52:40.239Z,102215.19
2018-11-27T07:55:11.278Z,102220.38
2018-11-27T07:57:38.737Z,102221.72
2018-11-27T08:00:12.317Z,102228.66
2018-11-27T08:02:39.956Z,102226.92
2018-11-27T08:05:10.095Z,102232.56
2018-11-27T08:07:37.783Z,102238.21
2018-11-27T08:10:15.380Z,102243.41
2018-11-27T08:12:43.135Z,102247.76
2018-11-27T08:15:14.639Z,102244.26
2018-11-27T08:17:42.323Z,102255.16
2018-11-27T08:20:16.060Z,102257.75
2018-11-27T08:22:43.672Z,102259.45
2018-11-27T08:25:13.160Z,102268.55
2018-11-27T08:27:41.107Z,102271.59
2018-11-27T08:30:10.187Z,102275.09
2018-11-27T08:32:37.695Z,102276.35
2018-11-27T08:35:06.861Z,102276.40
2018-11-27T08:37:34.384Z,102284.64
2018-11-27T08:40:07.427Z,102293.20
2018-11-27T08:42:35.404Z,102291.23
2018-11-27T08:45:02.995Z,102295.98
2018-11-27T08:47:30.539Z,102296.88
2018-11-27T08:49:58.371Z,102309.06
2018-11-27T08:52:25.824Z,102308.66
2018-11-27T08:54:53.282Z,102310.45
2018-11-27T08:57:20.942Z,102311.87
2018-11-27T08:59:48.464Z,102313.63
2018-11-27T09:02:15.892Z,102312.78
2018-11-27T09:04:43.547Z,102317.62
2018-11-27T09:07:11.058Z,102316.36
2018-11-27T09:09:38.547Z,102325.96
2018-11-27T09:12:06.717Z,102320.39
2018-11-27T09:14:34.204Z,102326.05
2018-11-27T09:17:01.673Z,102324.34
2018-11-27T09:19:29.720Z,102330.88
2018-11-27T09:21:57.250Z,102335.23
2018-11-27T09:24:24.800Z,102339.63
2018-11-27T09:26:52.717Z,102333.98
2018-11-27T09:29:20.179Z,102336.62
2018-11-27T09:31:47.774Z,102334.95
2018-11-27T09:34:15.463Z,102338.01
2018-11-27T09:36:43.034Z,102338.45
2018-11-27T09:39:10.547Z,102344.60
2018-11-27T09:41:38.684Z,102350.28
2018-11-27T09:44:06.679Z,102351.63
2018-11-27T09:46:34.320Z,102352.97
2018-11-27T09:49:02.105Z,102358.22
2018-11-27T09:51:29.588Z,102359.97
2018-11-27T09:53:57.092Z,102358.27
2018-11-27T09:56:24.734Z,102354.32
2018-11-27T09:58:52.631Z,102364.94
2018-11-27T10:01:19.780Z,102366.65
2018-11-27T10:03:47.590Z,102371.08
2018-11-27T10:06:15.127Z,102370.64
2018-11-27T10:08:42.658Z,102371.58
2018-11-27T10:11:10.428Z,102370.31
2018-11-27T10:13:37.932Z,102377.72
2018-11-27T10:16:05.659Z,102372.59
2018-11-27T10:18:33.352Z,102379.96
2018-11-27T10:21:00.809Z,102376.99
2018-11-27T10:23:28.224Z,102378.34
2018-11-27T10:25:56.017Z,102378.38
2018-11-27T10:28:23.510Z,102376.67
2018-11-27T10:30:51.063Z,102381.95
2018-11-27T10:33:18.732Z,102383.30
2018-11-27T10:35:48.677Z,102389.41
2018-11-27T10:38:16.215Z,102392.54
2018-11-27T10:40:44.751Z,102394.70
2018-11-27T10:43:12.271Z,102400.84
2018-11-27T10:45:39.848Z,102403.08
2018-11-27T10:48:07.597Z,102397.47
2018-11-27T10:50:35.110Z,102393.16
2018-11-27T10:53:02.654Z,102396.70
2018-11-27T10:55:30.412Z,102402.84
2018-11-27T10:57:58.016Z,102405.00
2018-11-27T11:00:31.916Z,102403.33
2018-11-27T11:03:06.547Z,102408.58
2018-11-27T11:05:35.349Z,102414.67
2018-11-27T11:08:02.912Z,102414.28
2018-11-27T11:10:30.566Z,102415.21
2018-11-27T11:12:58.399Z,102408.30
2018-11-27T11:15:26.166Z,102418.75
2018-11-27T11:17:53.828Z,102417.05
2018-11-27T11:20:21.960Z,102421.00
2018-11-27T11:22:49.491Z,102423.23
2018-11-27T11:25:19.036Z,102419.37
2018-11-27T11:27:48.342Z,102415.09
2018-11-27T11:30:18.838Z,102420.80
2018-11-27T11:32:46.390Z,102427.34
2018-11-27T11:35:14.209Z,102426.08
2018-11-27T11:37:41.919Z,102425.67
2018-11-27T11:40:25.075Z,102437.02
2018-11-27T11:42:53.796Z,102434.88
2018-11-27T11:45:21.285Z,102437.52
2018-11-27T11:47:48.973Z,102444.52
2018-11-27T11:50:17.789Z,102439.80
2018-11-27T11:52:51.865Z,102449.36
2018-11-27T11:55:19.679Z,102454.16
2018-11-27T11:57:47.209Z,102458.92
2018-11-27T12:00:19.466Z,102462.47
2018-11-27T12:02:46.940Z,102466.83
2018-11-27T12:05:14.458Z,102470.32
2018-11-27T12:07:42.105Z,102466.83
2018-11-27T12:10:11.932Z,102476.42
2018-11-27T12:12:39.495Z,102475.53
2018-11-27T12:15:13.117Z,102479.44
2018-11-27T12:17:41.139Z,102482.94
2018-11-27T12:20:10.086Z,102481.16
2018-11-27T12:22:37.787Z,102485.54
2018-11-27T12:25:08.169Z,102492.50
2018-11-27T12:27:35.819Z,102492.50
2018-11-27T12:30:04.413Z,102498.13
2018-11-27T12:32:31.944Z,102504.64
2018-11-27T12:34:59.442Z,102509.03
2018-11-27T12:37:26.942Z,102515.09
2018-11-27T12:39:54.431Z,102526.82
2018-11-27T12:42:21.903Z,102526.33
2018-11-27T12:44:49.363Z,102534.09
2018-11-27T12:47:17.523Z,102526.65
2018-11-27T12:49:44.446Z,102527.50
2018-11-27T12:52:11.883Z,102534.86
2018-11-27T12:54:39.336Z,102536.58
2018-11-27T12:57:06.857Z,102533.08
2018-11-27T12:59:34.309Z,102537.47
2018-11-27T13:02:01.742Z,102532.17
2018-11-27T13:04:29.276Z,102542.59
2018-11-27T13:06:56.741Z,102542.11
2018-11-27T13:09:24.459Z,102543.85
2018-11-27T13:11:51.951Z,102540.39
2018-11-27T13:14:19.525Z,102558.13
2018-11-27T13:16:46.993Z,102560.25
2018-11-27T13:19:14.476Z,102571.52
2018-11-27T13:21:42.103Z,102569.77
2018-11-27T13:24:09.541Z,102574.84
2018-11-27T13:26:37.023Z,102574.80
2018-11-27T13:29:04.732Z,102578.92
2018-11-27T13:31:32.225Z,102580.31
2018-11-27T13:34:03.281Z,102581.98
2018-11-27T13:36:30.876Z,102584.58
2018-11-27T13:39:09.442Z,102586.20
2018-11-27T13:41:36.942Z,102590.95
2018-11-27T13:44:04.486Z,102590.91
2018-11-27T13:46:32.001Z,102590.86
2018-11-27T13:48:59.620Z,102604.28
2018-11-27T13:51:27.112Z,102600.33
2018-11-27T13:53:54.690Z,102597.28
2018-11-27T13:56:22.161Z,102601.55
2018-11-27T13:58:49.723Z,102605.41
2018-11-27T14:01:17.184Z,102604.95
2018-11-27T14:03:44.643Z,102606.25
2018-11-27T14:06:12.179Z,102608.30
2018-11-27T14:08:39.665Z,102617.91
2018-11-27T14:11:07.269Z,102621.82
2018-11-27T14:13:34.705Z,102627.92
2018-11-27T14:16:02.246Z,102633.89
2018-11-27T14:18:29.773Z,102619.58
2018-11-27T14:20:57.217Z,102618.17
2018-11-27T14:23:24.695Z,102624.64
2018-11-27T14:25:52.252Z,102621.98
2018-11-27T14:28:19.773Z,102626.25
2018-11-27T14:30:47.249Z,102633.60
2018-11-27T14:33:14.725Z,102633.15
2018-11-27T14:35:42.185Z,102632.95
2018-11-27T14:38:09.698Z,102625.81
2018-11-27T14:40:37.166Z,102630.11
2018-11-27T14:43:04.732Z,102630.36
2018-11-27T14:45:32.228Z,102633.76
2018-11-27T14:47:59.786Z,102634.11
2018-11-27T14:50:27.273Z,102636.27
2018-11-27T14:52:54.757Z,102634.47
2018-11-27T14:55:31.304Z,102644.42
2018-11-27T14:57:58.811Z,102648.22
2018-11-27T15:00:26.784Z,102657.58
2018-11-27T15:02:54.558Z,102659.62
2018-11-27T15:05:26.323Z,102660.27
2018-11-27T15:07:53.834Z,102660.96
2018-11-27T15:10:21.374Z,102658.99
2018-11-27T15:12:49.187Z,102659.86
2018-11-27T15:15:16.679Z,102666.20
2018-11-27T15:17:44.148Z,102666.44
2018-11-27T15:20:16.565Z,102664.93
2018-11-27T15:22:44.051Z,102663.96
2018-11-27T15:25:11.647Z,102666.45
2018-11-27T15:27:39.159Z,102671.59
2018-11-27T15:30:15.141Z,102678.15
2018-11-27T15:32:42.769Z,102676.30
2018-11-27T15:35:11.194Z,102677.09
2018-11-27T15:37:38.710Z,102670.94
2018-11-27T15:40:11.759Z,102678.22
2018-11-27T15:42:39.280Z,102676.32
2018-11-27T15:45:08.626Z,102680.60
2018-11-27T15:47:36.160Z,102686.55
2018-11-27T15:50:04.391Z,102687.84
2018-11-27T15:52:31.864Z,102683.44
2018-11-27T15:54:59.350Z,102691.17
2018-11-27T15:57:27.115Z,102688.92
2018-11-27T15:59:54.436Z,102693.14
2018-11-27T16:02:21.929Z,102698.63
2018-11-27T16:04:49.436Z,102682.30
2018-11-27T16:07:16.917Z,102696.20
2018-11-27T16:09:44.405Z,102695.34
2018-11-27T16:12:11.925Z,102696.16
2018-11-27T16:14:39.603Z,102695.29
2018-11-27T16:17:07.123Z,102695.23
2018-11-27T16:19:34.543Z,102695.63
2018-11-27T16:22:02.070Z,102693.33
2018-11-27T16:24:29.574Z,102694.56
2018-11-27T16:26:57.066Z,102695.80
2018-11-27T16:29:24.673Z,102693.49
2018-11-27T16:31:52.215Z,102699.53
2018-11-27T16:34:19.734Z,102696.81
2018-11-27T16:36:47.222Z,102696.81
2018-11-27T16:39:14.643Z,102633.14
2018-11-27T16:41:42.132Z,102693.32
2018-11-27T16:44:09.681Z,102701.61
2018-11-27T16:46:37.206Z,102703.71
2018-11-27T16:49:04.948Z,102710.14
2018-11-27T16:51:32.415Z,102706.02
2018-11-27T16:53:59.936Z,102699.78
2018-11-27T16:56:27.433Z,102710.63
2018-11-27T16:58:54.960Z,102709.27
2018-11-27T17:01:22.436Z,102707.85
2018-11-27T17:03:49.911Z,102703.90
2018-11-27T17:06:17.445Z,102700.41
2018-11-27T17:08:44.930Z,102703.78
2018-11-27T17:11:12.432Z,102702.60
2018-11-27T17:13:39.914Z,102699.60
2018-11-27T17:16:07.505Z,102703.90
2018-11-27T17:18:35.024Z,102704.80
2018-11-27T17:21:02.515Z,102705.53
2018-11-27T17:26:28.215Z,102693.19
2018-11-27T17:28:55.780Z,102680.09
2018-11-27T17:31:23.288Z,102679.91
2018-11-27T17:33:59.337Z,102682.73
2018-11-27T17:36:26.921Z,102684.80
2018-11-27T17:38:54.522Z,102692.09
2018-11-27T17:41:21.996Z,102691.17
2018-11-27T17:43:49.527Z,102701.89
2018-11-27T17:46:17.067Z,102696.98
2018-11-27T17:48:44.553Z,102702.11
2018-11-27T17:51:12.056Z,102696.86
2018-11-27T17:53:39.634Z,102696.80
2018-11-27T17:56:07.241Z,102690.64
2018-11-27T17:58:34.775Z,102692.66
2018-11-27T18:01:02.269Z,102705.10
2018-11-27T18:03:29.776Z,102701.95
2018-11-27T18:05:57.311Z,102698.77
2018-11-27T18:08:24.798Z,102695.59
2018-11-27T18:10:52.657Z,102704.53
2018-11-27T18:13:20.167Z,102699.62
2018-11-27T18:15:47.633Z,102691.16
2018-11-27T18:18:15.475Z,102700.86
2018-11-27T18:20:42.955Z,102701.26
2018-11-27T18:23:10.457Z,102710.40
2018-11-27T18:25:38.002Z,102712.53
2018-11-27T18:28:05.752Z,102710.33
2018-11-27T18:30:33.308Z,102712.47
2018-11-27T18:33:00.821Z,102719.84
2018-11-27T18:35:28.254Z,102709.41
2018-11-27T18:37:55.677Z,102713.30
2018-11-27T18:40:23.214Z,102712.80
2018-11-27T18:42:50.691Z,102713.44
2018-11-27T18:45:23.121Z,102713.12
2018-11-27T18:47:50.638Z,102719.66
2018-11-27T18:50:18.177Z,102723.55
2018-11-27T18:52:45.668Z,102726.95
2018-11-27T18:55:14.233Z,102728.55
2018-11-27T18:57:42.294Z,102737.19
2018-11-27T19:00:16.928Z,102745.67
2018-11-27T19:02:44.663Z,102749.69
2018-11-27T19:05:12.149Z,102736.20
2018-11-27T19:07:39.656Z,102737.23
2018-11-27T19:10:12.598Z,102740.62
2018-11-27T19:12:40.088Z,102741.45
2018-11-27T19:15:09.866Z,102743.08
2018-11-27T19:17:37.375Z,102740.78
2018-11-27T19:20:07.838Z,102742.02
2018-11-27T19:22:35.387Z,102745.40
2018-11-27T19:25:02.930Z,102752.64
2018-11-27T19:27:30.421Z,102750.38
2018-11-27T19:29:57.918Z,102746.86
2018-11-27T19:32:25.595Z,102751.14
2018-11-27T19:34:53.064Z,102742.41
2018-11-27T19:37:20.602Z,102748.02
2018-11-27T19:39:48.104Z,102751.91
2018-11-27T19:42:15.629Z,102753.99
2018-11-27T19:44:43.111Z,102747.95
2018-11-27T19:47:10.621Z,102747.52
2018-11-27T19:49:38.087Z,102749.24
2018-11-27T19:52:05.567Z,102752.23
2018-11-27T19:54:33.125Z,102756.52
2018-11-27T19:57:00.581Z,102766.02
2018-11-27T19:59:28.091Z,102765.38
2018-11-27T20:01:55.547Z,102770.42
2018-11-27T20:04:23.139Z,102762.05
2018-11-27T20:06:50.726Z,102759.39
2018-11-27T20:09:18.202Z,102765.80
2018-11-27T20:11:45.655Z,102770.91
2018-11-27T20:14:13.164Z,102767.42
2018-11-27T20:16:40.724Z,102762.50
2018-11-27T20:19:08.258Z,102766.53
2018-11-27T20:21:35.935Z,102764.20
2018-11-27T20:24:03.442Z,102761.94
2018-11-27T20:26:30.894Z,102771.00
2018-11-27T20:28:58.450Z,102766.58
2018-11-27T20:31:25.932Z,102760.50
2018-11-27T20:33:53.372Z,102767.41
2018-11-27T20:36:20.927Z,102766.44
2018-11-27T20:38:48.421Z,102767.16
2018-11-27T20:41:15.896Z,102765.86
2018-11-27T20:43:43.414Z,102767.98
2018-11-27T20:46:10.941Z,102775.68
2018-11-27T20:48:38.432Z,102775.94
2018-11-27T20:51:06.243Z,102780.17
2018-11-27T20:53:33.719Z,102778.31
2018-11-27T20:56:01.229Z,102773.89
2018-11-27T20:58:28.712Z,102771.63
2018-11-27T21:00:56.222Z,102774.14
2018-11-27T21:03:23.757Z,102779.31
2018-11-27T21:05:51.248Z,102776.26
2018-11-27T21:08:18.732Z,102784.09
2018-11-27T21:10:46.248Z,102780.97
2018-11-27T21:13:13.793Z,102777.41
2018-11-27T21:15:42.191Z,102770.80
2018-11-27T21:18:10.601Z,102775.50
2018-11-27T21:20:38.675Z,102778.41
2018-11-27T21:23:06.420Z,102771.33
2018-11-27T21:25:33.920Z,102775.10
2018-11-27T21:28:05.758Z,102775.92
2018-11-27T21:30:33.342Z,102776.33
2018-11-27T21:33:01.178Z,102776.83
2018-11-27T21:35:28.750Z,102776.83
2018-11-27T21:37:56.321Z,102782.00
2018-11-27T21:40:23.844Z,102777.69
2018-11-27T21:42:51.475Z,102775.53
2018-11-27T21:45:21.957Z,102773.73
2018-11-27T21:47:50.097Z,102775.03
2018-11-27T21:50:24.927Z,102779.81
2018-11-27T21:52:52.485Z,102768.34
2018-11-27T21:55:20.026Z,102774.05
2018-11-27T21:57:47.529Z,102789.67
2018-11-27T22:00:16.692Z,102780.75
2018-11-27T22:02:44.228Z,102779.45
2018-11-27T22:05:12.210Z,102785.99
2018-11-27T22:07:39.694Z,102785.56
2018-11-27T22:10:10.302Z,102781.76
2018-11-27T22:12:37.906Z,102774.89
2018-11-27T22:15:08.469Z,102778.78
2018-11-27T22:17:35.956Z,102773.53
2018-11-27T22:20:04.453Z,102715.59
2018-11-27T22:22:31.922Z,102779.17
2018-11-27T22:24:59.438Z,102775.72
2018-11-27T22:27:26.924Z,102775.64
2018-11-27T22:29:54.454Z,102779.53
2018-11-27T22:32:21.963Z,102784.20
2018-11-27T22:34:49.643Z,102787.61
2018-11-27T22:37:17.089Z,102794.89
2018-11-27T22:39:44.634Z,102787.85
2018-11-27T22:42:12.131Z,102785.27
2018-11-27T22:44:39.626Z,102784.41
2018-11-27T22:47:07.138Z,102783.50
2018-11-27T22:49:34.712Z,102775.59
2018-11-27T22:52:02.280Z,102777.28
2018-11-27T22:54:29.790Z,102782.45
2018-11-27T22:56:57.235Z,102780.27
2018-11-27T22:59:24.707Z,102777.20
2018-11-27T23:01:52.215Z,102780.61
2018-11-27T23:04:19.729Z,102772.27
2018-11-27T23:06:47.236Z,102778.27
2018-11-27T23:09:14.776Z,102777.73
2018-11-27T23:11:42.283Z,102776.36
2018-11-27T23:14:09.773Z,102774.98
2018-11-27T23:16:37.309Z,102778.87
2018-11-27T23:19:07.897Z,102779.19
2018-11-27T23:21:35.411Z,102776.60
2018-11-27T23:24:02.948Z,102774.41
2018-11-27T23:26:30.397Z,102774.33
2018-11-27T23:28:57.929Z,102776.88
2018-11-27T23:31:25.449Z,102775.11
2018-11-27T23:33:52.960Z,102770.77
2018-11-27T23:36:20.728Z,102772.37
2018-11-27T23:38:48.215Z,102776.57
2018-11-27T23:41:15.734Z,102769.24
2018-11-27T23:43:43.221Z,102768.34
2018-11-27T23:46:10.751Z,102773.13
2018-11-27T23:48:38.428Z,102773.59
2018-11-27T23:51:06.009Z,102776.17
2018-11-27T23:53:33.553Z,102767.05
2018-11-27T23:56:01.063Z,102773.13
2018-11-27T23:58:28.583Z,102773.20
